createdAt,value
2022-12-22T00:02:01.599Z,95.45
2022-12-22T00:04:48.080Z,95.16
2022-12-22T00:07:33.695Z,95.02
2022-12-22T00:10:19.489Z,95.47
2022-12-22T00:13:06.544Z,94.84
2022-12-22T00:15:54.466Z,95.53
2022-12-22T00:18:40.310Z,95.82
2022-12-22T00:21:29.335Z,95.80
2022-12-22T00:24:15.694Z,95.69
2022-12-22T00:27:02.056Z,95.47
2022-12-22T00:29:58.888Z,95.52
2022-12-22T00:32:50.953Z,95.80
2022-12-22T00:35:42.080Z,95.36
2022-12-22T00:38:34.342Z,95.79
2022-12-22T00:41:23.063Z,96.16
2022-12-22T00:44:09.465Z,95.52
2022-12-22T00:46:59.455Z,96.27
2022-12-22T00:49:47.521Z,96.75
2022-12-22T00:52:34.504Z,96.31
2022-12-22T00:55:20.843Z,96.05
2022-12-22T00:58:06.928Z,95.84
2022-12-22T01:00:52.477Z,96.10
2022-12-22T01:03:39.653Z,96.68
2022-12-22T01:06:29.204Z,95.75
2022-12-22T01:09:15.010Z,96.28
2022-12-22T01:12:00.973Z,95.96
2022-12-22T01:14:46.685Z,96.22
2022-12-22T01:17:32.948Z,96.56
2022-12-22T01:20:20.093Z,96.25
2022-12-22T01:23:06.108Z,96.11
2022-12-22T01:25:51.832Z,96.64
2022-12-22T01:28:37.415Z,96.06
2022-12-22T01:31:37.044Z,96.54
2022-12-22T01:34:22.982Z,96.33
2022-12-22T01:37:10.111Z,96.21
2022-12-22T01:39:55.994Z,96.08
2022-12-22T01:42:42.587Z,96.43
2022-12-22T01:45:40.447Z,96.05
2022-12-22T01:48:31.020Z,96.01
2022-12-22T01:51:18.521Z,96.79
2022-12-22T01:54:06.509Z,96.87
2022-12-22T01:56:52.679Z,96.28
2022-12-22T01:59:38.663Z,96.48
2022-12-22T02:02:25.859Z,96.58
2022-12-22T02:05:14.715Z,96.54
2022-12-22T02:08:19.620Z,96.26
2022-12-22T02:11:25.644Z,96.47
2022-12-22T02:14:30.148Z,96.90
2022-12-22T02:17:29.516Z,96.77
2022-12-22T02:20:49.341Z,96.52
2022-12-22T02:24:22.539Z,96.29
2022-12-22T02:27:13.519Z,96.89
2022-12-22T02:30:05.660Z,96.31
2022-12-22T02:32:55.014Z,96.23
2022-12-22T02:35:40.870Z,96.87
2022-12-22T02:38:34.013Z,96.87
2022-12-22T02:41:41.354Z,96.30
2022-12-22T02:44:40.896Z,96.93
2022-12-22T02:47:37.841Z,96.36
2022-12-22T02:50:34.920Z,96.95
2022-12-22T02:53:22.246Z,96.51
2022-12-22T02:56:08.062Z,96.38
2022-12-22T02:58:54.210Z,96.76
2022-12-22T03:01:41.374Z,97.02
2022-12-22T03:04:27.257Z,96.66
2022-12-22T03:07:12.826Z,96.80
2022-12-22T03:09:58.527Z,96.88
2022-12-22T03:12:44.623Z,96.89
2022-12-22T03:15:30.491Z,97.01
2022-12-22T03:18:22.431Z,96.71
2022-12-22T03:21:08.203Z,96.46
2022-12-22T03:23:54.208Z,96.47
2022-12-22T03:26:22.585Z,96.53
2022-12-22T03:28:51.097Z,96.91
2022-12-22T03:31:19.819Z,96.25
2022-12-22T03:33:49.635Z,96.93
2022-12-22T03:36:18.156Z,96.79
2022-12-22T03:38:46.539Z,96.72
2022-12-22T03:41:34.981Z,96.76
2022-12-22T03:44:21.368Z,96.26
2022-12-22T03:46:49.775Z,96.79
2022-12-22T03:49:20.109Z,96.25
2022-12-22T03:51:50.875Z,96.74
2022-12-22T03:54:21.872Z,96.75
2022-12-22T03:56:50.990Z,96.44
2022-12-22T03:59:20.405Z,96.13
2022-12-22T04:01:51.629Z,96.48
2022-12-22T04:04:24.153Z,96.62
2022-12-22T04:06:52.945Z,96.64
2022-12-22T04:09:22.299Z,96.96
2022-12-22T04:12:08.372Z,96.79
2022-12-22T04:14:36.885Z,96.96
2022-12-22T04:17:06.167Z,96.35
2022-12-22T04:19:35.995Z,96.87
2022-12-22T04:22:04.305Z,96.47
2022-12-22T04:24:32.717Z,96.47
2022-12-22T04:27:01.179Z,96.92
2022-12-22T04:29:29.529Z,96.86
2022-12-22T04:31:58.021Z,96.64
2022-12-22T04:34:27.466Z,96.76
2022-12-22T04:37:04.455Z,97.05
2022-12-22T04:39:38.383Z,96.67
2022-12-22T04:42:06.793Z,96.88
2022-12-22T04:44:35.121Z,96.73
2022-12-22T04:47:03.467Z,97.04
2022-12-22T04:49:32.176Z,96.58
2022-12-22T04:52:01.928Z,96.72
2022-12-22T04:54:30.326Z,96.63
2022-12-22T04:56:58.651Z,96.65
2022-12-22T04:59:27.297Z,97.16
2022-12-22T05:01:55.818Z,96.99
2022-12-22T05:04:24.618Z,96.56
2022-12-22T05:06:52.968Z,96.91
2022-12-22T05:09:22.759Z,96.67
2022-12-22T05:11:51.160Z,97.37
2022-12-22T05:14:19.632Z,96.62
2022-12-22T05:16:48.048Z,96.96
2022-12-22T05:19:17.199Z,96.66
2022-12-22T05:21:45.598Z,96.63
2022-12-22T05:24:14.760Z,97.11
2022-12-22T05:26:44.483Z,97.00
2022-12-22T05:29:12.890Z,96.87
2022-12-22T05:31:46.981Z,96.99
2022-12-22T05:34:15.888Z,96.55
2022-12-22T05:36:44.261Z,96.62
2022-12-22T05:39:12.669Z,97.05
2022-12-22T05:41:40.994Z,96.61
2022-12-22T05:44:10.787Z,97.21
2022-12-22T05:46:39.124Z,96.89
2022-12-22T05:49:07.492Z,96.78
2022-12-22T05:51:35.909Z,96.85
2022-12-22T05:54:04.257Z,97.20
2022-12-22T05:56:32.629Z,96.77
2022-12-22T05:59:01.002Z,96.51
2022-12-22T06:01:31.207Z,97.06
2022-12-22T06:04:00.701Z,97.00
2022-12-22T06:06:29.528Z,96.74
2022-12-22T06:08:57.877Z,96.70
2022-12-22T06:11:26.219Z,96.63
2022-12-22T06:13:54.522Z,96.70
2022-12-22T06:16:22.883Z,97.21
2022-12-22T06:18:52.697Z,96.57
2022-12-22T06:21:20.964Z,97.07
2022-12-22T06:23:49.276Z,96.89
2022-12-22T06:26:17.759Z,97.22
2022-12-22T06:28:46.288Z,96.62
2022-12-22T06:31:14.613Z,96.71
2022-12-22T06:33:43.110Z,96.70
2022-12-22T06:36:13.236Z,96.70
2022-12-22T06:38:41.588Z,97.09
2022-12-22T06:41:09.949Z,96.75
2022-12-22T06:43:37.418Z,96.86
2022-12-22T06:46:06.247Z,97.04
2022-12-22T06:48:34.670Z,96.62
2022-12-22T06:51:03.067Z,96.06
2022-12-22T06:53:33.089Z,95.03
2022-12-22T06:56:01.448Z,95.54
2022-12-22T06:58:29.900Z,94.90
2022-12-22T07:00:58.393Z,94.66
2022-12-22T07:03:26.959Z,95.05
2022-12-22T07:05:55.447Z,95.04
2022-12-22T07:08:24.220Z,95.18
2022-12-22T07:10:59.606Z,95.18
2022-12-22T07:13:31.860Z,95.36
2022-12-22T07:16:02.107Z,94.99
2022-12-22T07:18:32.928Z,94.36
2022-12-22T07:21:02.903Z,93.71
2022-12-22T07:23:32.006Z,93.86
2022-12-22T07:26:02.331Z,94.29
2022-12-22T07:28:30.752Z,94.55
2022-12-22T07:30:59.223Z,93.98
2022-12-22T07:33:27.657Z,93.96
2022-12-22T07:36:08.773Z,93.68
2022-12-22T07:38:40.092Z,93.69
2022-12-22T07:41:25.581Z,94.22
2022-12-22T07:43:54.871Z,94.34
2022-12-22T07:46:24.359Z,93.78
2022-12-22T07:49:09.857Z,94.08
2022-12-22T07:51:40.892Z,95.03
2022-12-22T07:54:11.152Z,95.36
2022-12-22T07:56:41.406Z,96.55
2022-12-22T07:59:10.677Z,96.54
2022-12-22T08:01:40.362Z,97.70
2022-12-22T08:04:09.088Z,97.33
2022-12-22T08:06:37.841Z,96.88
2022-12-22T08:09:08.704Z,97.59
2022-12-22T08:11:37.343Z,98.44
2022-12-22T08:14:07.291Z,98.45
2022-12-22T08:16:35.807Z,98.48
2022-12-22T08:19:04.203Z,98.82
2022-12-22T08:21:32.586Z,98.48
2022-12-22T08:24:00.895Z,97.92
2022-12-22T08:26:34.642Z,98.38
2022-12-22T08:29:09.484Z,98.00
2022-12-22T08:31:38.231Z,97.97
2022-12-22T08:34:10.144Z,98.83
2022-12-22T08:36:44.759Z,97.46
2022-12-22T08:39:14.312Z,97.69
2022-12-22T08:41:51.899Z,98.20
2022-12-22T08:44:24.731Z,98.18
2022-12-22T08:46:54.647Z,98.55
2022-12-22T08:49:23.643Z,98.25
2022-12-22T08:51:52.854Z,98.93
2022-12-22T08:54:21.767Z,97.87
2022-12-22T08:56:50.682Z,98.12
2022-12-22T08:59:20.881Z,98.08
2022-12-22T09:01:51.177Z,98.73
2022-12-22T09:04:22.439Z,99.11
2022-12-22T09:06:53.608Z,98.73
2022-12-22T09:09:23.281Z,98.57
2022-12-22T09:11:51.977Z,98.36
2022-12-22T09:14:21.657Z,97.79
2022-12-22T09:16:50.543Z,98.20
2022-12-22T09:19:18.983Z,98.11
2022-12-22T09:21:47.525Z,98.16
2022-12-22T09:24:16.152Z,99.12
2022-12-22T09:26:44.673Z,98.10
2022-12-22T09:29:15.347Z,98.38
2022-12-22T09:31:45.440Z,98.60
2022-12-22T09:34:18.091Z,98.25
2022-12-22T09:36:47.324Z,98.34
2022-12-22T09:39:16.267Z,98.50
2022-12-22T09:41:48.587Z,97.82
2022-12-22T09:44:28.267Z,98.46
2022-12-22T09:47:02.155Z,97.64
2022-12-22T09:49:30.791Z,98.65
2022-12-22T09:52:02.031Z,98.01
2022-12-22T09:54:31.685Z,98.18
2022-12-22T09:57:00.952Z,97.96
2022-12-22T09:59:31.317Z,98.47
2022-12-22T10:02:20.146Z,98.75
2022-12-22T10:05:05.211Z,97.93
2022-12-22T10:07:36.801Z,97.20
2022-12-22T10:10:09.807Z,97.67
2022-12-22T10:12:38.249Z,97.89
2022-12-22T10:15:15.450Z,97.58
2022-12-22T10:17:51.287Z,98.03
2022-12-22T10:20:26.897Z,98.34
2022-12-22T10:22:59.168Z,97.82
2022-12-22T10:26:00.339Z,97.38
2022-12-22T10:28:27.260Z,97.56
2022-12-22T10:31:13.614Z,97.05
2022-12-22T10:33:47.503Z,98.11
2022-12-22T10:36:20.327Z,97.61
2022-12-22T10:39:00.848Z,97.40
2022-12-22T10:41:32.456Z,97.67
2022-12-22T10:44:03.905Z,97.55
2022-12-22T10:46:39.737Z,97.55
2022-12-22T10:49:20.476Z,96.81
2022-12-22T10:51:53.659Z,97.63
2022-12-22T10:54:34.245Z,97.24
2022-12-22T10:57:29.040Z,96.92
2022-12-22T10:59:59.523Z,97.59
2022-12-22T11:02:34.367Z,97.13
2022-12-22T11:05:08.150Z,97.47
2022-12-22T11:07:39.162Z,97.42
2022-12-22T11:10:20.537Z,96.90
2022-12-22T11:13:08.148Z,96.62
2022-12-22T11:15:42.930Z,96.95
2022-12-22T11:18:37.804Z,97.53
2022-12-22T11:21:23.660Z,96.98
2022-12-22T11:24:03.056Z,96.98
2022-12-22T11:26:45.088Z,96.50
2022-12-22T11:29:52.481Z,97.63
2022-12-22T11:32:41.971Z,97.06
2022-12-22T11:35:19.040Z,97.03
2022-12-22T11:37:54.584Z,97.89
2022-12-22T11:40:33.272Z,97.35
2022-12-22T11:43:23.955Z,97.48
2022-12-22T11:46:23.291Z,97.44
2022-12-22T11:49:22.181Z,97.13
2022-12-22T11:52:10.944Z,97.22
2022-12-22T11:55:13.091Z,97.49
2022-12-22T11:57:56.524Z,97.79
2022-12-22T12:00:32.702Z,97.24
2022-12-22T12:04:09.153Z,97.42
2022-12-22T12:07:01.119Z,96.99
2022-12-22T12:09:44.506Z,97.01
2022-12-22T12:12:24.564Z,96.66
2022-12-22T12:15:06.274Z,97.19
2022-12-22T12:17:52.655Z,96.76
2022-12-22T12:20:45.675Z,96.62
2022-12-22T12:23:45.777Z,96.38
2022-12-22T12:26:21.523Z,96.83
2022-12-22T12:29:06.469Z,96.58
2022-12-22T12:31:41.331Z,95.72
2022-12-22T12:34:16.017Z,96.34
2022-12-22T12:36:53.389Z,96.19
2022-12-22T12:39:32.373Z,96.20
2022-12-22T12:42:16.645Z,95.75
2022-12-22T12:44:47.667Z,96.02
2022-12-22T12:47:26.588Z,95.41
2022-12-22T12:50:18.404Z,95.39
2022-12-22T12:53:11.493Z,95.30
2022-12-22T12:56:04.819Z,94.46
2022-12-22T12:58:59.116Z,94.78
2022-12-22T13:02:02.328Z,94.53
2022-12-22T13:05:29.013Z,94.58
2022-12-22T13:08:19.798Z,94.81
2022-12-22T13:11:44.837Z,94.80
2022-12-22T13:14:10.183Z,94.73
2022-12-22T13:16:40.663Z,94.25
2022-12-22T13:19:32.026Z,93.79
2022-12-22T13:22:04.213Z,93.76
2022-12-22T13:24:48.840Z,93.44
2022-12-22T13:27:18.542Z,93.12
2022-12-22T13:29:48.967Z,92.82
2022-12-22T13:32:28.787Z,92.94
2022-12-22T13:35:37.468Z,92.73
2022-12-22T13:38:07.150Z,92.62
2022-12-22T13:40:44.027Z,92.53
2022-12-22T13:43:16.117Z,92.32
2022-12-22T13:45:47.900Z,91.81
2022-12-22T13:48:20.177Z,91.68
2022-12-22T13:50:53.201Z,91.77
2022-12-22T13:56:24.040Z,91.39
2022-12-22T13:58:57.112Z,90.91
2022-12-22T14:01:25.713Z,90.92
2022-12-22T14:04:00.902Z,91.21
2022-12-22T14:06:34.635Z,90.79
2022-12-22T14:09:19.513Z,90.56
2022-12-22T14:11:53.172Z,90.36
2022-12-22T14:14:26.855Z,90.68
2022-12-22T14:16:58.753Z,90.31
2022-12-22T14:19:31.177Z,90.10
2022-12-22T14:22:12.366Z,89.98
2022-12-22T14:24:49.310Z,89.65
2022-12-22T14:27:25.382Z,89.83
2022-12-22T14:29:54.030Z,89.49
2022-12-22T14:32:39.554Z,89.55
2022-12-22T14:35:27.883Z,89.14
2022-12-22T14:38:19.334Z,89.01
2022-12-22T14:40:52.659Z,88.77
2022-12-22T14:43:29.787Z,88.56
2022-12-22T14:46:08.436Z,88.94
2022-12-22T14:48:40.779Z,88.48
2022-12-22T14:51:09.291Z,88.95
2022-12-22T14:53:48.305Z,88.84
2022-12-22T14:56:19.100Z,88.67
2022-12-22T14:58:49.353Z,88.89
2022-12-22T15:01:23.153Z,88.85
2022-12-22T15:04:07.783Z,88.54
2022-12-22T15:06:40.670Z,89.00
2022-12-22T15:10:13.192Z,88.65
2022-12-22T15:12:20.245Z,88.57
2022-12-22T15:14:49.919Z,89.21
2022-12-22T15:17:26.594Z,88.92
2022-12-22T15:19:58.874Z,89.15
2022-12-22T15:22:27.150Z,88.78
2022-12-22T15:24:56.908Z,89.29
2022-12-22T15:27:25.256Z,88.61
2022-12-22T15:29:53.568Z,89.06
2022-12-22T15:32:22.591Z,88.86
2022-12-22T15:34:50.940Z,88.91
2022-12-22T15:37:19.243Z,88.77
2022-12-22T15:39:47.916Z,89.17
2022-12-22T15:42:17.635Z,88.90
2022-12-22T15:44:45.998Z,88.99
2022-12-22T15:47:14.621Z,88.97
2022-12-22T15:49:43.021Z,89.23
2022-12-22T15:52:14.862Z,89.23
2022-12-22T15:54:43.465Z,88.81
2022-12-22T15:57:15.194Z,89.16
2022-12-22T15:59:44.921Z,89.02
2022-12-22T16:02:14.637Z,89.00
2022-12-22T16:04:43.163Z,89.23
2022-12-22T16:07:13.059Z,89.04
2022-12-22T16:09:44.479Z,89.40
2022-12-22T16:12:18.473Z,88.94
2022-12-22T16:14:52.055Z,89.29
2022-12-22T16:17:22.691Z,88.84
2022-12-22T16:19:51.215Z,88.83
2022-12-22T16:22:32.649Z,89.57
2022-12-22T16:25:03.703Z,89.62
2022-12-22T16:27:32.581Z,89.38
2022-12-22T16:30:02.371Z,89.27
2022-12-22T16:32:33.224Z,89.01
2022-12-22T16:35:15.795Z,89.52
2022-12-22T16:37:44.792Z,89.92
2022-12-22T16:40:14.297Z,89.77
2022-12-22T16:45:45.931Z,89.70
2022-12-22T16:48:20.622Z,89.68
2022-12-22T16:50:49.978Z,89.43
2022-12-22T16:53:18.399Z,89.36
2022-12-22T16:55:46.725Z,89.95
2022-12-22T16:58:15.278Z,89.57
2022-12-22T17:00:46.634Z,90.05
2022-12-22T17:03:17.892Z,89.54
2022-12-22T17:05:50.701Z,90.06
2022-12-22T17:08:25.868Z,90.14
2022-12-22T17:10:57.100Z,89.99
2022-12-22T17:13:25.883Z,90.10
2022-12-22T17:15:55.586Z,90.14
2022-12-22T17:18:29.396Z,89.89
2022-12-22T17:21:00.588Z,90.20
2022-12-22T17:23:34.504Z,89.83
2022-12-22T17:26:07.883Z,90.58
2022-12-22T17:28:39.730Z,90.04
2022-12-22T17:31:10.730Z,89.89
2022-12-22T17:33:39.057Z,89.96
2022-12-22T17:36:16.381Z,89.59
2022-12-22T17:38:46.798Z,89.81
2022-12-22T17:41:18.293Z,89.60
2022-12-22T17:43:46.668Z,90.39
2022-12-22T17:46:19.862Z,89.98
2022-12-22T17:48:48.901Z,90.12
2022-12-22T17:51:23.802Z,90.49
2022-12-22T17:53:52.815Z,90.58
2022-12-22T17:56:24.977Z,89.91
2022-12-22T17:58:54.095Z,89.99
2022-12-22T18:01:27.579Z,89.70
2022-12-22T18:03:57.117Z,90.27
2022-12-22T18:06:29.359Z,90.06
2022-12-22T18:08:58.560Z,90.92
2022-12-22T18:11:27.762Z,90.65
2022-12-22T18:13:57.405Z,90.20
2022-12-22T18:16:27.308Z,90.21
2022-12-22T18:18:55.775Z,89.83
2022-12-22T18:21:25.955Z,90.19
2022-12-22T18:23:54.418Z,90.61
2022-12-22T18:26:26.171Z,89.90
2022-12-22T18:28:55.930Z,90.48
2022-12-22T18:31:26.379Z,89.97
2022-12-22T18:33:55.006Z,90.64
2022-12-22T18:36:29.797Z,90.23
2022-12-22T18:38:59.199Z,90.46
2022-12-22T18:41:32.027Z,91.06
2022-12-22T18:44:00.395Z,90.58
2022-12-22T18:46:30.160Z,90.68
2022-12-22T18:49:05.017Z,90.22
2022-12-22T18:51:33.923Z,90.29
2022-12-22T18:54:02.280Z,90.85
2022-12-22T18:56:30.504Z,90.34
2022-12-22T18:58:58.814Z,90.69
2022-12-22T19:01:29.821Z,90.43
2022-12-22T19:03:59.474Z,91.10
2022-12-22T19:06:27.837Z,90.09
2022-12-22T19:08:56.665Z,90.27
2022-12-22T19:11:34.527Z,90.63
2022-12-22T19:14:03.835Z,90.88
2022-12-22T19:16:33.492Z,91.35
2022-12-22T19:19:01.851Z,90.84
2022-12-22T19:21:30.150Z,90.34
2022-12-22T19:23:58.507Z,90.82
2022-12-22T19:26:28.586Z,90.91
2022-12-22T19:29:01.968Z,91.21
2022-12-22T19:31:34.401Z,90.70
2022-12-22T19:34:06.471Z,90.80
2022-12-22T19:36:35.021Z,90.47
2022-12-22T19:39:05.441Z,90.89
2022-12-22T19:41:41.793Z,90.85
2022-12-22T19:44:22.169Z,91.01
2022-12-22T19:46:52.674Z,90.47
2022-12-22T19:49:23.875Z,91.50
2022-12-22T19:51:52.248Z,91.24
2022-12-22T19:54:20.855Z,90.71
2022-12-22T19:56:52.844Z,90.94
2022-12-22T19:59:34.003Z,91.01
2022-12-22T20:02:26.755Z,91.16
2022-12-22T20:04:57.169Z,90.98
2022-12-22T20:07:28.343Z,91.01
2022-12-22T20:09:56.875Z,91.24
2022-12-22T20:12:30.864Z,90.79
2022-12-22T20:14:59.890Z,91.63
2022-12-22T20:17:29.660Z,90.83
2022-12-22T20:19:58.038Z,91.44
2022-12-22T20:22:26.460Z,91.83
2022-12-22T20:24:55.459Z,90.82
2022-12-22T20:27:30.949Z,91.23
2022-12-22T20:30:05.810Z,91.54
2022-12-22T20:32:35.578Z,91.28
2022-12-22T20:35:04.119Z,91.90
2022-12-22T20:37:32.522Z,91.12
2022-12-22T20:40:01.322Z,91.24
2022-12-22T20:42:29.825Z,91.73
2022-12-22T20:45:02.108Z,91.09
2022-12-22T20:47:37.187Z,91.53
2022-12-22T20:50:19.615Z,91.95
2022-12-22T20:52:48.472Z,92.04
2022-12-22T20:55:18.515Z,90.90
2022-12-22T20:57:48.363Z,91.09
2022-12-22T21:00:23.425Z,91.23
2022-12-22T21:02:54.750Z,90.98
2022-12-22T21:05:23.620Z,91.40
2022-12-22T21:07:52.065Z,92.05
2022-12-22T21:10:23.911Z,91.65
2022-12-22T21:12:52.378Z,92.08
2022-12-22T21:15:23.733Z,91.21
2022-12-22T21:17:58.116Z,91.44
2022-12-22T21:20:30.033Z,92.04
2022-12-22T21:22:58.522Z,91.88
2022-12-22T21:25:27.112Z,91.22
2022-12-22T21:27:55.560Z,91.91
2022-12-22T21:30:26.518Z,91.32
2022-12-22T21:32:57.043Z,91.43
2022-12-22T21:35:28.373Z,91.88
2022-12-22T21:37:59.292Z,91.29
2022-12-22T21:40:31.080Z,92.05
2022-12-22T21:42:59.882Z,91.79
2022-12-22T21:45:36.937Z,91.95
2022-12-22T21:48:13.537Z,92.02
2022-12-22T21:50:42.284Z,91.94
2022-12-22T21:53:18.044Z,92.30
2022-12-22T21:55:50.376Z,91.66
2022-12-22T21:58:18.708Z,92.10
2022-12-22T22:00:49.775Z,91.62
2022-12-22T22:03:19.541Z,91.50
2022-12-22T22:05:48.856Z,92.41
2022-12-22T22:08:17.147Z,92.49
2022-12-22T22:10:45.632Z,91.56
2022-12-22T22:13:16.893Z,92.49
2022-12-22T22:15:45.404Z,92.50
2022-12-22T22:18:18.915Z,92.04
2022-12-22T22:20:51.245Z,91.99
2022-12-22T22:23:20.656Z,92.29
2022-12-22T22:25:48.991Z,92.53
2022-12-22T22:28:18.154Z,92.28
2022-12-22T22:30:46.857Z,91.93
2022-12-22T22:33:15.835Z,91.67
2022-12-22T22:35:45.647Z,92.41
2022-12-22T22:38:16.169Z,92.17
2022-12-22T22:40:45.592Z,91.36
2022-12-22T22:43:15.024Z,92.36
2022-12-22T22:45:44.089Z,92.09
2022-12-22T22:48:20.804Z,92.79
2022-12-22T22:50:51.312Z,91.85
2022-12-22T22:53:19.724Z,92.73
2022-12-22T22:55:48.190Z,92.69
2022-12-22T22:58:16.522Z,92.18
2022-12-22T23:00:44.865Z,92.20
2022-12-22T23:03:13.362Z,91.90
2022-12-22T23:05:41.741Z,92.47
2022-12-22T23:08:11.474Z,91.75
2022-12-22T23:10:41.948Z,92.67
2022-12-22T23:13:10.976Z,92.16
2022-12-22T23:15:39.300Z,92.01
2022-12-22T23:18:07.682Z,92.37
2022-12-22T23:20:36.083Z,92.32
2022-12-22T23:23:04.445Z,91.68
2022-12-22T23:25:34.517Z,92.89
2022-12-22T23:28:02.881Z,92.43
2022-12-22T23:30:31.123Z,92.47
2022-12-22T23:32:59.503Z,92.55
2022-12-22T23:35:27.907Z,92.01
2022-12-22T23:37:56.260Z,92.37
2022-12-22T23:40:51.152Z,91.99
2022-12-22T23:43:15.090Z,91.84
2022-12-22T23:45:43.675Z,91.92
2022-12-22T23:48:12.143Z,92.17
2022-12-22T23:50:40.499Z,92.25
2022-12-22T23:53:08.890Z,92.59
2022-12-22T23:55:37.206Z,92.62
2022-12-22T23:58:05.547Z,92.51
